sensor_id;sensor_type;location;lat;lon;timestamp;P1;durP1;ratioP1;P2;durP2;ratioP2
18224;SDS011;9237;48.590;8.854;2023-06-14T00:01:52;0.60;;;0.60;;
18224;SDS011;9237;48.590;8.854;2023-06-14T00:04:19;0.60;;;0.60;;
18224;SDS011;9237;48.590;8.854;2023-06-14T00:06:47;0.70;;;0.70;;
18224;SDS011;9237;48.590;8.854;2023-06-14T00:09:15;0.60;;;0.60;;
18224;SDS011;9237;48.590;8.854;2023-06-14T00:11:43;0.70;;;0.70;;
18224;SDS011;9237;48.590;8.854;2023-06-14T00:14:11;0.60;;;0.60;;
18224;SDS011;9237;48.590;8.854;2023-06-14T00:16:39;0.60;;;0.60;;
18224;SDS011;9237;48.590;8.854;2023-06-14T00:19:07;0.60;;;0.60;;
18224;SDS011;9237;48.590;8.854;2023-06-14T00:21:35;0.70;;;0.70;;
18224;SDS011;9237;48.590;8.854;2023-06-14T00:24:03;0.70;;;0.70;;
18224;SDS011;9237;48.590;8.854;2023-06-14T00:26:30;0.73;;;0.73;;
18224;SDS011;9237;48.590;8.854;2023-06-14T00:28:57;0.70;;;0.70;;
18224;SDS011;9237;48.590;8.854;2023-06-14T00:31:25;0.67;;;0.67;;
18224;SDS011;9237;48.590;8.854;2023-06-14T00:33:52;0.70;;;0.70;;
18224;SDS011;9237;48.590;8.854;2023-06-14T00:36:19;0.70;;;0.70;;
18224;SDS011;9237;48.590;8.854;2023-06-14T00:38:45;0.70;;;0.70;;
18224;SDS011;9237;48.590;8.854;2023-06-14T00:41:12;0.70;;;0.70;;
18224;SDS011;9237;48.590;8.854;2023-06-14T00:43:39;0.70;;;0.70;;
18224;SDS011;9237;48.590;8.854;2023-06-14T00:46:06;0.70;;;0.70;;
18224;SDS011;9237;48.590;8.854;2023-06-14T00:48:34;0.70;;;0.70;;
18224;SDS011;9237;48.590;8.854;2023-06-14T00:51:03;0.70;;;0.70;;
18224;SDS011;9237;48.590;8.854;2023-06-14T00:53:30;0.70;;;0.70;;
18224;SDS011;9237;48.590;8.854;2023-06-14T00:55:59;0.70;;;0.70;;
18224;SDS011;9237;48.590;8.854;2023-06-14T00:58:26;0.70;;;0.70;;
18224;SDS011;9237;48.590;8.854;2023-06-14T01:00:55;0.70;;;0.70;;
18224;SDS011;9237;48.590;8.854;2023-06-14T01:03:23;0.67;;;0.67;;
18224;SDS011;9237;48.590;8.854;2023-06-14T01:05:53;0.70;;;0.70;;
18224;SDS011;9237;48.590;8.854;2023-06-14T01:08:28;0.70;;;0.70;;
18224;SDS011;9237;48.590;8.854;2023-06-14T01:11:07;0.60;;;0.60;;
18224;SDS011;9237;48.590;8.854;2023-06-14T01:13:40;0.70;;;0.70;;
18224;SDS011;9237;48.590;8.854;2023-06-14T01:16:12;0.70;;;0.70;;
18224;SDS011;9237;48.590;8.854;2023-06-14T01:18:39;0.70;;;0.70;;
18224;SDS011;9237;48.590;8.854;2023-06-14T01:21:22;0.70;;;0.70;;
18224;SDS011;9237;48.590;8.854;2023-06-14T01:23:51;0.70;;;0.70;;
18224;SDS011;9237;48.590;8.854;2023-06-14T01:26:19;0.60;;;0.60;;
18224;SDS011;9237;48.590;8.854;2023-06-14T01:28:47;0.70;;;0.70;;
18224;SDS011;9237;48.590;8.854;2023-06-14T01:31:18;0.70;;;0.70;;
18224;SDS011;9237;48.590;8.854;2023-06-14T01:33:47;0.70;;;0.70;;
18224;SDS011;9237;48.590;8.854;2023-06-14T01:36:15;0.70;;;0.70;;
18224;SDS011;9237;48.590;8.854;2023-06-14T01:38:43;0.80;;;0.80;;
18224;SDS011;9237;48.590;8.854;2023-06-14T01:41:13;0.70;;;0.70;;
18224;SDS011;9237;48.590;8.854;2023-06-14T01:43:40;0.70;;;0.70;;
18224;SDS011;9237;48.590;8.854;2023-06-14T01:46:08;0.70;;;0.70;;
18224;SDS011;9237;48.590;8.854;2023-06-14T01:48:36;0.70;;;0.70;;
18224;SDS011;9237;48.590;8.854;2023-06-14T01:51:04;0.70;;;0.70;;
18224;SDS011;9237;48.590;8.854;2023-06-14T01:53:30;0.70;;;0.70;;
18224;SDS011;9237;48.590;8.854;2023-06-14T01:55:57;0.70;;;0.70;;
18224;SDS011;9237;48.590;8.854;2023-06-14T01:58:26;0.70;;;0.70;;
18224;SDS011;9237;48.590;8.854;2023-06-14T02:00:53;0.60;;;0.60;;
18224;SDS011;9237;48.590;8.854;2023-06-14T02:03:21;0.70;;;0.70;;
18224;SDS011;9237;48.590;8.854;2023-06-14T02:05:48;0.70;;;0.70;;
18224;SDS011;9237;48.590;8.854;2023-06-14T02:08:15;0.70;;;0.70;;
18224;SDS011;9237;48.590;8.854;2023-06-14T02:10:42;0.70;;;0.70;;
18224;SDS011;9237;48.590;8.854;2023-06-14T02:13:08;0.70;;;0.70;;
18224;SDS011;9237;48.590;8.854;2023-06-14T02:15:37;0.70;;;0.70;;
18224;SDS011;9237;48.590;8.854;2023-06-14T02:18:04;0.60;;;0.60;;
18224;SDS011;9237;48.590;8.854;2023-06-14T02:20:30;0.70;;;0.70;;
18224;SDS011;9237;48.590;8.854;2023-06-14T02:22:57;0.70;;;0.70;;
18224;SDS011;9237;48.590;8.854;2023-06-14T02:25:24;0.60;;;0.60;;
18224;SDS011;9237;48.590;8.854;2023-06-14T02:27:52;0.70;;;0.70;;
18224;SDS011;9237;48.590;8.854;2023-06-14T02:30:20;0.70;;;0.70;;
18224;SDS011;9237;48.590;8.854;2023-06-14T02:32:48;0.80;;;0.80;;
18224;SDS011;9237;48.590;8.854;2023-06-14T02:35:16;0.70;;;0.70;;
18224;SDS011;9237;48.590;8.854;2023-06-14T02:37:42;0.70;;;0.70;;
18224;SDS011;9237;48.590;8.854;2023-06-14T02:40:10;0.70;;;0.70;;
18224;SDS011;9237;48.590;8.854;2023-06-14T02:42:37;0.80;;;0.80;;
18224;SDS011;9237;48.590;8.854;2023-06-14T02:45:04;0.70;;;0.70;;
18224;SDS011;9237;48.590;8.854;2023-06-14T02:47:32;0.70;;;0.70;;
18224;SDS011;9237;48.590;8.854;2023-06-14T02:50:00;0.70;;;0.70;;
18224;SDS011;9237;48.590;8.854;2023-06-14T02:52:27;0.70;;;0.70;;
18224;SDS011;9237;48.590;8.854;2023-06-14T02:54:54;0.70;;;0.70;;
18224;SDS011;9237;48.590;8.854;2023-06-14T02:57:21;0.70;;;0.70;;
18224;SDS011;9237;48.590;8.854;2023-06-14T02:59:48;0.70;;;0.70;;
18224;SDS011;9237;48.590;8.854;2023-06-14T03:02:15;0.70;;;0.70;;
18224;SDS011;9237;48.590;8.854;2023-06-14T03:04:42;0.70;;;0.70;;
18224;SDS011;9237;48.590;8.854;2023-06-14T03:07:11;0.70;;;0.70;;
18224;SDS011;9237;48.590;8.854;2023-06-14T03:09:38;0.70;;;0.70;;
18224;SDS011;9237;48.590;8.854;2023-06-14T03:12:05;0.70;;;0.70;;
18224;SDS011;9237;48.590;8.854;2023-06-14T03:14:34;0.60;;;0.60;;
18224;SDS011;9237;48.590;8.854;2023-06-14T03:17:01;0.70;;;0.70;;
18224;SDS011;9237;48.590;8.854;2023-06-14T03:19:29;0.70;;;0.70;;
18224;SDS011;9237;48.590;8.854;2023-06-14T03:21:56;0.70;;;0.70;;
18224;SDS011;9237;48.590;8.854;2023-06-14T03:24:25;0.70;;;0.70;;
18224;SDS011;9237;48.590;8.854;2023-06-14T03:26:53;0.70;;;0.70;;
18224;SDS011;9237;48.590;8.854;2023-06-14T03:29:20;0.70;;;0.70;;
18224;SDS011;9237;48.590;8.854;2023-06-14T03:31:56;0.70;;;0.70;;
18224;SDS011;9237;48.590;8.854;2023-06-14T03:34:24;0.80;;;0.80;;
18224;SDS011;9237;48.590;8.854;2023-06-14T03:36:51;0.70;;;0.70;;
18224;SDS011;9237;48.590;8.854;2023-06-14T03:39:18;0.70;;;0.70;;
18224;SDS011;9237;48.590;8.854;2023-06-14T03:41:47;0.67;;;0.67;;
18224;SDS011;9237;48.590;8.854;2023-06-14T03:44:15;0.70;;;0.70;;
18224;SDS011;9237;48.590;8.854;2023-06-14T03:46:42;0.70;;;0.70;;
18224;SDS011;9237;48.590;8.854;2023-06-14T03:49:10;0.70;;;0.70;;
18224;SDS011;9237;48.590;8.854;2023-06-14T03:51:37;0.70;;;0.70;;
18224;SDS011;9237;48.590;8.854;2023-06-14T03:54:04;0.70;;;0.70;;
18224;SDS011;9237;48.590;8.854;2023-06-14T03:56:32;0.70;;;0.70;;
18224;SDS011;9237;48.590;8.854;2023-06-14T03:59:00;0.70;;;0.70;;
18224;SDS011;9237;48.590;8.854;2023-06-14T04:01:27;0.80;;;0.80;;
18224;SDS011;9237;48.590;8.854;2023-06-14T04:03:55;0.70;;;0.70;;
18224;SDS011;9237;48.590;8.854;2023-06-14T04:06:23;0.80;;;0.80;;
18224;SDS011;9237;48.590;8.854;2023-06-14T04:08:57;0.80;;;0.80;;
18224;SDS011;9237;48.590;8.854;2023-06-14T04:11:27;0.80;;;0.80;;
18224;SDS011;9237;48.590;8.854;2023-06-14T04:13:54;0.70;;;0.70;;
18224;SDS011;9237;48.590;8.854;2023-06-14T04:16:22;0.60;;;0.60;;
18224;SDS011;9237;48.590;8.854;2023-06-14T04:18:49;0.70;;;0.70;;
18224;SDS011;9237;48.590;8.854;2023-06-14T04:21:17;0.70;;;0.70;;
18224;SDS011;9237;48.590;8.854;2023-06-14T04:23:44;0.70;;;0.70;;
18224;SDS011;9237;48.590;8.854;2023-06-14T04:26:11;0.70;;;0.70;;
18224;SDS011;9237;48.590;8.854;2023-06-14T04:28:38;0.70;;;0.70;;
18224;SDS011;9237;48.590;8.854;2023-06-14T04:31:06;0.70;;;0.70;;
18224;SDS011;9237;48.590;8.854;2023-06-14T04:33:34;0.60;;;0.60;;
18224;SDS011;9237;48.590;8.854;2023-06-14T04:36:08;0.63;;;0.63;;
18224;SDS011;9237;48.590;8.854;2023-06-14T04:38:35;0.70;;;0.70;;
18224;SDS011;9237;48.590;8.854;2023-06-14T04:41:02;0.70;;;0.70;;
18224;SDS011;9237;48.590;8.854;2023-06-14T04:43:29;0.70;;;0.70;;
18224;SDS011;9237;48.590;8.854;2023-06-14T04:45:56;0.70;;;0.70;;
18224;SDS011;9237;48.590;8.854;2023-06-14T04:48:23;0.60;;;0.60;;
18224;SDS011;9237;48.590;8.854;2023-06-14T04:50:51;0.70;;;0.70;;
18224;SDS011;9237;48.590;8.854;2023-06-14T04:53:19;0.70;;;0.70;;
18224;SDS011;9237;48.590;8.854;2023-06-14T04:55:48;0.80;;;0.80;;
18224;SDS011;9237;48.590;8.854;2023-06-14T04:58:15;0.70;;;0.70;;
18224;SDS011;9237;48.590;8.854;2023-06-14T05:00:42;0.67;;;0.67;;
18224;SDS011;9237;48.590;8.854;2023-06-14T05:03:09;0.60;;;0.60;;
18224;SDS011;9237;48.590;8.854;2023-06-14T05:05:38;0.70;;;0.70;;
18224;SDS011;9237;48.590;8.854;2023-06-14T05:08:07;0.70;;;0.70;;
18224;SDS011;9237;48.590;8.854;2023-06-14T05:10:34;0.70;;;0.70;;
18224;SDS011;9237;48.590;8.854;2023-06-14T05:13:01;0.70;;;0.70;;
18224;SDS011;9237;48.590;8.854;2023-06-14T05:15:28;0.70;;;0.70;;
18224;SDS011;9237;48.590;8.854;2023-06-14T05:17:55;0.67;;;0.67;;
18224;SDS011;9237;48.590;8.854;2023-06-14T05:20:22;0.60;;;0.60;;
18224;SDS011;9237;48.590;8.854;2023-06-14T05:22:49;0.60;;;0.60;;
18224;SDS011;9237;48.590;8.854;2023-06-14T05:25:19;0.70;;;0.70;;
18224;SDS011;9237;48.590;8.854;2023-06-14T05:27:46;0.60;;;0.60;;
18224;SDS011;9237;48.590;8.854;2023-06-14T05:30:13;0.60;;;0.60;;
18224;SDS011;9237;48.590;8.854;2023-06-14T05:32:40;0.57;;;0.57;;
18224;SDS011;9237;48.590;8.854;2023-06-14T05:35:07;0.60;;;0.60;;
18224;SDS011;9237;48.590;8.854;2023-06-14T05:37:35;0.60;;;0.60;;
18224;SDS011;9237;48.590;8.854;2023-06-14T05:40:02;0.60;;;0.60;;
18224;SDS011;9237;48.590;8.854;2023-06-14T05:42:32;0.70;;;0.70;;
18224;SDS011;9237;48.590;8.854;2023-06-14T05:44:59;0.60;;;0.60;;
18224;SDS011;9237;48.590;8.854;2023-06-14T05:47:26;0.60;;;0.60;;
18224;SDS011;9237;48.590;8.854;2023-06-14T05:49:53;0.60;;;0.60;;
18224;SDS011;9237;48.590;8.854;2023-06-14T05:52:20;0.60;;;0.60;;
18224;SDS011;9237;48.590;8.854;2023-06-14T05:54:47;0.60;;;0.60;;
18224;SDS011;9237;48.590;8.854;2023-06-14T05:57:14;0.60;;;0.60;;
18224;SDS011;9237;48.590;8.854;2023-06-14T05:59:42;0.60;;;0.60;;
18224;SDS011;9237;48.590;8.854;2023-06-14T06:02:09;0.60;;;0.60;;
18224;SDS011;9237;48.590;8.854;2023-06-14T06:04:36;0.60;;;0.60;;
18224;SDS011;9237;48.590;8.854;2023-06-14T06:07:02;0.60;;;0.60;;
18224;SDS011;9237;48.590;8.854;2023-06-14T06:09:30;0.60;;;0.60;;
18224;SDS011;9237;48.590;8.854;2023-06-14T06:11:57;0.60;;;0.60;;
18224;SDS011;9237;48.590;8.854;2023-06-14T06:14:23;0.60;;;0.60;;
18224;SDS011;9237;48.590;8.854;2023-06-14T06:16:52;0.50;;;0.50;;
18224;SDS011;9237;48.590;8.854;2023-06-14T06:19:19;0.60;;;0.60;;
18224;SDS011;9237;48.590;8.854;2023-06-14T06:21:45;0.53;;;0.53;;
18224;SDS011;9237;48.590;8.854;2023-06-14T06:24:12;0.50;;;0.50;;
18224;SDS011;9237;48.590;8.854;2023-06-14T06:26:39;0.50;;;0.50;;
18224;SDS011;9237;48.590;8.854;2023-06-14T06:29:06;0.60;;;0.60;;
18224;SDS011;9237;48.590;8.854;2023-06-14T06:31:33;0.60;;;0.60;;
18224;SDS011;9237;48.590;8.854;2023-06-14T06:34:01;0.60;;;0.60;;
18224;SDS011;9237;48.590;8.854;2023-06-14T06:36:28;0.50;;;0.50;;
18224;SDS011;9237;48.590;8.854;2023-06-14T06:38:54;0.50;;;0.50;;
18224;SDS011;9237;48.590;8.854;2023-06-14T06:41:21;0.50;;;0.50;;
18224;SDS011;9237;48.590;8.854;2023-06-14T06:43:48;0.50;;;0.50;;
18224;SDS011;9237;48.590;8.854;2023-06-14T06:46:15;0.50;;;0.50;;
18224;SDS011;9237;48.590;8.854;2023-06-14T06:48:43;0.50;;;0.50;;
18224;SDS011;9237;48.590;8.854;2023-06-14T06:51:11;0.50;;;0.50;;
18224;SDS011;9237;48.590;8.854;2023-06-14T06:53:39;0.50;;;0.50;;
18224;SDS011;9237;48.590;8.854;2023-06-14T06:56:07;0.50;;;0.50;;
18224;SDS011;9237;48.590;8.854;2023-06-14T06:58:34;0.50;;;0.50;;
18224;SDS011;9237;48.590;8.854;2023-06-14T07:01:01;0.40;;;0.40;;
18224;SDS011;9237;48.590;8.854;2023-06-14T07:03:28;0.50;;;0.50;;
18224;SDS011;9237;48.590;8.854;2023-06-14T07:05:55;0.40;;;0.40;;
18224;SDS011;9237;48.590;8.854;2023-06-14T07:08:23;0.40;;;0.40;;
18224;SDS011;9237;48.590;8.854;2023-06-14T07:10:50;0.50;;;0.50;;
18224;SDS011;9237;48.590;8.854;2023-06-14T07:13:16;0.50;;;0.50;;
18224;SDS011;9237;48.590;8.854;2023-06-14T07:15:44;0.40;;;0.40;;
18224;SDS011;9237;48.590;8.854;2023-06-14T07:18:11;0.40;;;0.40;;
18224;SDS011;9237;48.590;8.854;2023-06-14T07:20:38;0.40;;;0.40;;
18224;SDS011;9237;48.590;8.854;2023-06-14T07:23:05;0.40;;;0.40;;
18224;SDS011;9237;48.590;8.854;2023-06-14T07:25:33;0.40;;;0.40;;
18224;SDS011;9237;48.590;8.854;2023-06-14T07:28:00;0.40;;;0.40;;
18224;SDS011;9237;48.590;8.854;2023-06-14T07:30:27;0.40;;;0.40;;
18224;SDS011;9237;48.590;8.854;2023-06-14T07:32:55;0.40;;;0.40;;
18224;SDS011;9237;48.590;8.854;2023-06-14T07:35:21;0.40;;;0.40;;
18224;SDS011;9237;48.590;8.854;2023-06-14T07:37:48;0.40;;;0.40;;
18224;SDS011;9237;48.590;8.854;2023-06-14T07:40:15;0.40;;;0.40;;
18224;SDS011;9237;48.590;8.854;2023-06-14T07:42:43;0.40;;;0.40;;
18224;SDS011;9237;48.590;8.854;2023-06-14T07:45:11;0.40;;;0.40;;
18224;SDS011;9237;48.590;8.854;2023-06-14T07:47:39;0.35;;;0.35;;
18224;SDS011;9237;48.590;8.854;2023-06-14T07:50:06;0.40;;;0.40;;
18224;SDS011;9237;48.590;8.854;2023-06-14T07:52:33;0.40;;;0.40;;
18224;SDS011;9237;48.590;8.854;2023-06-14T07:55:00;0.40;;;0.40;;
18224;SDS011;9237;48.590;8.854;2023-06-14T07:57:27;0.40;;;0.40;;
18224;SDS011;9237;48.590;8.854;2023-06-14T07:59:55;0.30;;;0.30;;
18224;SDS011;9237;48.590;8.854;2023-06-14T08:02:22;0.38;;;0.38;;
18224;SDS011;9237;48.590;8.854;2023-06-14T08:04:49;0.40;;;0.40;;
18224;SDS011;9237;48.590;8.854;2023-06-14T08:07:15;0.40;;;0.40;;
18224;SDS011;9237;48.590;8.854;2023-06-14T08:09:42;0.40;;;0.40;;
18224;SDS011;9237;48.590;8.854;2023-06-14T08:12:09;0.40;;;0.40;;
18224;SDS011;9237;48.590;8.854;2023-06-14T08:14:36;0.30;;;0.30;;
18224;SDS011;9237;48.590;8.854;2023-06-14T08:17:04;0.30;;;0.30;;
18224;SDS011;9237;48.590;8.854;2023-06-14T08:19:31;0.35;;;0.35;;
18224;SDS011;9237;48.590;8.854;2023-06-14T08:21:58;0.35;;;0.35;;
18224;SDS011;9237;48.590;8.854;2023-06-14T08:24:25;0.30;;;0.30;;
18224;SDS011;9237;48.590;8.854;2023-06-14T08:26:52;0.28;;;0.28;;
18224;SDS011;9237;48.590;8.854;2023-06-14T08:29:19;0.30;;;0.30;;
18224;SDS011;9237;48.590;8.854;2023-06-14T08:31:46;0.30;;;0.30;;
18224;SDS011;9237;48.590;8.854;2023-06-14T08:34:14;0.30;;;0.30;;
18224;SDS011;9237;48.590;8.854;2023-06-14T08:36:41;0.38;;;0.38;;
18224;SDS011;9237;48.590;8.854;2023-06-14T08:39:08;0.40;;;0.40;;
18224;SDS011;9237;48.590;8.854;2023-06-14T08:41:35;0.38;;;0.38;;
18224;SDS011;9237;48.590;8.854;2023-06-14T08:44:02;0.40;;;0.40;;
18224;SDS011;9237;48.590;8.854;2023-06-14T08:46:29;0.40;;;0.40;;
18224;SDS011;9237;48.590;8.854;2023-06-14T08:48:59;0.30;;;0.30;;
18224;SDS011;9237;48.590;8.854;2023-06-14T08:51:28;0.40;;;0.40;;
18224;SDS011;9237;48.590;8.854;2023-06-14T08:53:59;0.30;;;0.30;;
18224;SDS011;9237;48.590;8.854;2023-06-14T08:56:27;0.30;;;0.30;;
18224;SDS011;9237;48.590;8.854;2023-06-14T08:58:55;0.30;;;0.30;;
18224;SDS011;9237;48.590;8.854;2023-06-14T09:01:25;0.35;;;0.35;;
18224;SDS011;9237;48.590;8.854;2023-06-14T09:03:52;0.30;;;0.30;;
18224;SDS011;9237;48.590;8.854;2023-06-14T09:06:20;0.30;;;0.30;;
18224;SDS011;9237;48.590;8.854;2023-06-14T09:08:49;0.30;;;0.30;;
18224;SDS011;9237;48.590;8.854;2023-06-14T09:11:17;0.30;;;0.30;;
18224;SDS011;9237;48.590;8.854;2023-06-14T09:13:45;0.30;;;0.30;;
18224;SDS011;9237;48.590;8.854;2023-06-14T09:16:12;0.30;;;0.30;;
18224;SDS011;9237;48.590;8.854;2023-06-14T09:18:39;0.30;;;0.30;;
18224;SDS011;9237;48.590;8.854;2023-06-14T09:21:08;0.30;;;0.30;;
18224;SDS011;9237;48.590;8.854;2023-06-14T09:23:36;0.30;;;0.30;;
18224;SDS011;9237;48.590;8.854;2023-06-14T09:26:09;0.30;;;0.30;;
18224;SDS011;9237;48.590;8.854;2023-06-14T09:28:37;0.30;;;0.30;;
18224;SDS011;9237;48.590;8.854;2023-06-14T09:31:09;0.30;;;0.30;;
18224;SDS011;9237;48.590;8.854;2023-06-14T09:33:36;0.30;;;0.30;;
18224;SDS011;9237;48.590;8.854;2023-06-14T09:36:03;0.30;;;0.30;;
18224;SDS011;9237;48.590;8.854;2023-06-14T09:38:30;0.30;;;0.30;;
18224;SDS011;9237;48.590;8.854;2023-06-14T09:40:58;0.32;;;0.32;;
18224;SDS011;9237;48.590;8.854;2023-06-14T09:43:27;0.32;;;0.32;;
18224;SDS011;9237;48.590;8.854;2023-06-14T09:45:54;0.30;;;0.30;;
18224;SDS011;9237;48.590;8.854;2023-06-14T09:48:22;0.40;;;0.40;;
18224;SDS011;9237;48.590;8.854;2023-06-14T09:50:49;0.30;;;0.30;;
18224;SDS011;9237;48.590;8.854;2023-06-14T09:53:16;0.30;;;0.30;;
18224;SDS011;9237;48.590;8.854;2023-06-14T09:55:47;0.30;;;0.30;;
18224;SDS011;9237;48.590;8.854;2023-06-14T09:58:16;0.30;;;0.30;;
18224;SDS011;9237;48.590;8.854;2023-06-14T10:00:47;0.40;;;0.40;;
18224;SDS011;9237;48.590;8.854;2023-06-14T10:03:20;0.40;;;0.40;;
18224;SDS011;9237;48.590;8.854;2023-06-14T10:05:50;0.30;;;0.30;;
18224;SDS011;9237;48.590;8.854;2023-06-14T10:08:17;0.30;;;0.30;;
18224;SDS011;9237;48.590;8.854;2023-06-14T10:10:50;0.30;;;0.30;;
18224;SDS011;9237;48.590;8.854;2023-06-14T10:13:17;0.30;;;0.30;;
18224;SDS011;9237;48.590;8.854;2023-06-14T10:15:50;0.30;;;0.30;;
18224;SDS011;9237;48.590;8.854;2023-06-14T10:18:23;0.30;;;0.30;;
18224;SDS011;9237;48.590;8.854;2023-06-14T10:20:58;0.30;;;0.30;;
18224;SDS011;9237;48.590;8.854;2023-06-14T10:23:33;0.40;;;0.40;;
18224;SDS011;9237;48.590;8.854;2023-06-14T10:26:03;0.30;;;0.30;;
18224;SDS011;9237;48.590;8.854;2023-06-14T10:28:31;0.40;;;0.40;;
18224;SDS011;9237;48.590;8.854;2023-06-14T10:31:06;0.30;;;0.30;;
18224;SDS011;9237;48.590;8.854;2023-06-14T10:33:34;0.30;;;0.30;;
18224;SDS011;9237;48.590;8.854;2023-06-14T10:36:08;0.30;;;0.30;;
18224;SDS011;9237;48.590;8.854;2023-06-14T10:38:36;0.30;;;0.30;;
18224;SDS011;9237;48.590;8.854;2023-06-14T10:41:04;0.30;;;0.30;;
18224;SDS011;9237;48.590;8.854;2023-06-14T10:43:31;0.30;;;0.30;;
18224;SDS011;9237;48.590;8.854;2023-06-14T10:46:13;0.32;;;0.32;;
18224;SDS011;9237;48.590;8.854;2023-06-14T10:48:40;0.30;;;0.30;;
18224;SDS011;9237;48.590;8.854;2023-06-14T10:51:13;0.30;;;0.30;;
18224;SDS011;9237;48.590;8.854;2023-06-14T10:53:46;0.30;;;0.30;;
18224;SDS011;9237;48.590;8.854;2023-06-14T10:56:23;0.38;;;0.38;;
18224;SDS011;9237;48.590;8.854;2023-06-14T10:58:53;0.30;;;0.30;;
18224;SDS011;9237;48.590;8.854;2023-06-14T11:01:26;0.30;;;0.30;;
18224;SDS011;9237;48.590;8.854;2023-06-14T11:04:06;0.30;;;0.30;;
18224;SDS011;9237;48.590;8.854;2023-06-14T11:12:19;0.30;;;0.30;;
18224;SDS011;9237;48.590;8.854;2023-06-14T11:14:48;0.30;;;0.30;;
18224;SDS011;9237;48.590;8.854;2023-06-14T11:17:16;0.20;;;0.20;;
18224;SDS011;9237;48.590;8.854;2023-06-14T11:19:43;0.20;;;0.20;;
18224;SDS011;9237;48.590;8.854;2023-06-14T11:22:10;0.30;;;0.30;;
18224;SDS011;9237;48.590;8.854;2023-06-14T11:24:39;0.30;;;0.30;;
18224;SDS011;9237;48.590;8.854;2023-06-14T11:27:06;0.30;;;0.30;;
18224;SDS011;9237;48.590;8.854;2023-06-14T11:29:33;0.30;;;0.30;;
18224;SDS011;9237;48.590;8.854;2023-06-14T11:32:00;0.30;;;0.30;;
18224;SDS011;9237;48.590;8.854;2023-06-14T11:34:28;0.30;;;0.30;;
18224;SDS011;9237;48.590;8.854;2023-06-14T11:36:55;0.20;;;0.20;;
18224;SDS011;9237;48.590;8.854;2023-06-14T11:39:24;0.30;;;0.30;;
18224;SDS011;9237;48.590;8.854;2023-06-14T11:41:51;0.20;;;0.20;;
18224;SDS011;9237;48.590;8.854;2023-06-14T11:44:18;0.20;;;0.20;;
18224;SDS011;9237;48.590;8.854;2023-06-14T11:46:44;0.30;;;0.30;;
18224;SDS011;9237;48.590;8.854;2023-06-14T11:49:11;0.20;;;0.20;;
18224;SDS011;9237;48.590;8.854;2023-06-14T11:51:39;0.20;;;0.20;;
18224;SDS011;9237;48.590;8.854;2023-06-14T11:54:09;0.30;;;0.30;;
18224;SDS011;9237;48.590;8.854;2023-06-14T11:56:36;0.20;;;0.20;;
18224;SDS011;9237;48.590;8.854;2023-06-14T11:59:03;0.20;;;0.20;;
18224;SDS011;9237;48.590;8.854;2023-06-14T12:01:30;0.20;;;0.20;;
18224;SDS011;9237;48.590;8.854;2023-06-14T12:03:58;0.30;;;0.30;;
18224;SDS011;9237;48.590;8.854;2023-06-14T12:06:25;0.20;;;0.20;;
18224;SDS011;9237;48.590;8.854;2023-06-14T12:08:58;0.20;;;0.20;;
18224;SDS011;9237;48.590;8.854;2023-06-14T12:11:28;0.20;;;0.20;;
18224;SDS011;9237;48.590;8.854;2023-06-14T12:13:58;0.20;;;0.20;;
18224;SDS011;9237;48.590;8.854;2023-06-14T12:16:29;0.25;;;0.25;;
18224;SDS011;9237;48.590;8.854;2023-06-14T12:18:59;0.20;;;0.20;;
18224;SDS011;9237;48.590;8.854;2023-06-14T12:21:27;0.20;;;0.20;;
18224;SDS011;9237;48.590;8.854;2023-06-14T12:23:55;0.20;;;0.20;;
18224;SDS011;9237;48.590;8.854;2023-06-14T12:26:23;0.20;;;0.20;;
18224;SDS011;9237;48.590;8.854;2023-06-14T12:28:52;0.20;;;0.20;;
18224;SDS011;9237;48.590;8.854;2023-06-14T12:31:19;0.25;;;0.25;;
18224;SDS011;9237;48.590;8.854;2023-06-14T12:33:47;0.30;;;0.30;;
18224;SDS011;9237;48.590;8.854;2023-06-14T12:36:14;0.20;;;0.20;;
18224;SDS011;9237;48.590;8.854;2023-06-14T12:38:41;0.20;;;0.20;;
18224;SDS011;9237;48.590;8.854;2023-06-14T12:41:08;0.30;;;0.30;;
18224;SDS011;9237;48.590;8.854;2023-06-14T12:43:37;0.30;;;0.30;;
18224;SDS011;9237;48.590;8.854;2023-06-14T12:46:03;0.30;;;0.30;;
18224;SDS011;9237;48.590;8.854;2023-06-14T12:48:30;0.30;;;0.30;;
18224;SDS011;9237;48.590;8.854;2023-06-14T12:50:59;0.30;;;0.30;;
18224;SDS011;9237;48.590;8.854;2023-06-14T12:53:26;0.30;;;0.30;;
18224;SDS011;9237;48.590;8.854;2023-06-14T12:55:52;0.30;;;0.30;;
18224;SDS011;9237;48.590;8.854;2023-06-14T12:58:19;0.30;;;0.30;;
18224;SDS011;9237;48.590;8.854;2023-06-14T13:00:47;0.35;;;0.35;;
18224;SDS011;9237;48.590;8.854;2023-06-14T13:03:14;0.30;;;0.30;;
18224;SDS011;9237;48.590;8.854;2023-06-14T13:05:41;0.30;;;0.30;;
18224;SDS011;9237;48.590;8.854;2023-06-14T13:08:08;0.30;;;0.30;;
18224;SDS011;9237;48.590;8.854;2023-06-14T13:10:35;0.38;;;0.38;;
18224;SDS011;9237;48.590;8.854;2023-06-14T13:13:02;0.30;;;0.30;;
18224;SDS011;9237;48.590;8.854;2023-06-14T13:15:29;0.30;;;0.30;;
18224;SDS011;9237;48.590;8.854;2023-06-14T13:17:57;0.28;;;0.28;;
18224;SDS011;9237;48.590;8.854;2023-06-14T13:20:24;0.28;;;0.28;;
18224;SDS011;9237;48.590;8.854;2023-06-14T13:22:51;0.20;;;0.20;;
18224;SDS011;9237;48.590;8.854;2023-06-14T13:25:17;0.20;;;0.20;;
18224;SDS011;9237;48.590;8.854;2023-06-14T13:27:45;0.30;;;0.30;;
18224;SDS011;9237;48.590;8.854;2023-06-14T13:30:13;0.30;;;0.30;;
18224;SDS011;9237;48.590;8.854;2023-06-14T13:32:39;0.30;;;0.30;;
18224;SDS011;9237;48.590;8.854;2023-06-14T13:35:08;0.30;;;0.30;;
18224;SDS011;9237;48.590;8.854;2023-06-14T13:37:35;0.30;;;0.30;;
18224;SDS011;9237;48.590;8.854;2023-06-14T13:40:01;0.30;;;0.30;;
18224;SDS011;9237;48.590;8.854;2023-06-14T13:42:28;0.25;;;0.25;;
18224;SDS011;9237;48.590;8.854;2023-06-14T13:44:58;0.20;;;0.20;;
18224;SDS011;9237;48.590;8.854;2023-06-14T13:47:25;0.20;;;0.20;;
18224;SDS011;9237;48.590;8.854;2023-06-14T13:49:51;0.30;;;0.30;;
18224;SDS011;9237;48.590;8.854;2023-06-14T13:52:20;0.30;;;0.30;;
18224;SDS011;9237;48.590;8.854;2023-06-14T13:54:47;0.30;;;0.30;;
18224;SDS011;9237;48.590;8.854;2023-06-14T13:57:14;0.30;;;0.30;;
18224;SDS011;9237;48.590;8.854;2023-06-14T13:59:40;0.30;;;0.30;;
18224;SDS011;9237;48.590;8.854;2023-06-14T14:02:09;0.20;;;0.20;;
18224;SDS011;9237;48.590;8.854;2023-06-14T14:04:36;0.30;;;0.30;;
18224;SDS011;9237;48.590;8.854;2023-06-14T14:07:03;0.30;;;0.30;;
18224;SDS011;9237;48.590;8.854;2023-06-14T14:09:32;0.30;;;0.30;;
18224;SDS011;9237;48.590;8.854;2023-06-14T14:12:00;0.30;;;0.30;;
18224;SDS011;9237;48.590;8.854;2023-06-14T14:14:27;0.30;;;0.30;;
18224;SDS011;9237;48.590;8.854;2023-06-14T14:16:54;0.30;;;0.30;;
18224;SDS011;9237;48.590;8.854;2023-06-14T14:19:21;0.30;;;0.30;;
18224;SDS011;9237;48.590;8.854;2023-06-14T14:21:48;0.30;;;0.30;;
18224;SDS011;9237;48.590;8.854;2023-06-14T14:24:15;0.30;;;0.30;;
18224;SDS011;9237;48.590;8.854;2023-06-14T14:26:43;0.40;;;0.40;;
18224;SDS011;9237;48.590;8.854;2023-06-14T14:29:12;0.30;;;0.30;;
18224;SDS011;9237;48.590;8.854;2023-06-14T14:31:39;0.30;;;0.30;;
18224;SDS011;9237;48.590;8.854;2023-06-14T14:34:06;0.30;;;0.30;;
18224;SDS011;9237;48.590;8.854;2023-06-14T14:36:32;0.30;;;0.30;;
18224;SDS011;9237;48.590;8.854;2023-06-14T14:39:02;0.30;;;0.30;;
18224;SDS011;9237;48.590;8.854;2023-06-14T14:41:29;0.40;;;0.40;;
18224;SDS011;9237;48.590;8.854;2023-06-14T14:43:57;0.30;;;0.30;;
18224;SDS011;9237;48.590;8.854;2023-06-14T14:46:25;0.40;;;0.40;;
18224;SDS011;9237;48.590;8.854;2023-06-14T14:48:53;0.30;;;0.30;;
18224;SDS011;9237;48.590;8.854;2023-06-14T14:51:20;0.30;;;0.30;;
18224;SDS011;9237;48.590;8.854;2023-06-14T14:53:46;0.30;;;0.30;;
18224;SDS011;9237;48.590;8.854;2023-06-14T14:56:13;0.30;;;0.30;;
18224;SDS011;9237;48.590;8.854;2023-06-14T14:58:40;0.40;;;0.40;;
18224;SDS011;9237;48.590;8.854;2023-06-14T15:01:08;0.40;;;0.40;;
18224;SDS011;9237;48.590;8.854;2023-06-14T15:03:35;0.40;;;0.40;;
18224;SDS011;9237;48.590;8.854;2023-06-14T15:06:02;0.40;;;0.40;;
18224;SDS011;9237;48.590;8.854;2023-06-14T15:08:30;0.30;;;0.30;;
18224;SDS011;9237;48.590;8.854;2023-06-14T15:10:56;0.40;;;0.40;;